Time;durP1;ratioP1;P1;durP2;ratioP2;P2;SDS_P1;SDS_P2;PMS_P1;PMS_P2;Temp;Humidity;BMP_temperature;BMP_pressure;BME280_temperature;BME280_humidity;BME280_pressure;Samples;Min_cycle;Max_cycle;Signal;HPM_P1;HPM_P2
2022/03/21 00:00:08;;;;;;;8.80;6.70;;;3.40;39.60;;;;;;6328820;28;20484;-62
2022/03/21 00:03:15;;;;;;;9.47;7.10;;;3.30;39.90;;;;;;6328756;28;20480;-62
2022/03/21 00:06:19;;;;;;;12.10;8.43;;;3.30;40.20;;;;;;6328145;28;20858;-63
2022/03/21 00:09:23;;;;;;;8.10;6.93;;;3.30;40.70;;;;;;6328073;28;20497;-64
2022/03/21 00:12:26;;;;;;;9.50;8.50;;;3.20;39.90;;;;;;6328116;28;20953;-65
2022/03/21 00:15:30;;;;;;;10.63;8.73;;;3.10;42.10;;;;;;6328298;28;20542;-64
2022/03/21 00:18:34;;;;;;;14.23;9.70;;;3.20;42.70;;;;;;6327803;28;20839;-64
2022/03/21 00:21:38;;;;;;;8.17;7.20;;;3.10;43.10;;;;;;6327771;28;20488;-64
2022/03/21 00:24:42;;;;;;;8.90;7.60;;;3.10;43.70;;;;;;6327135;28;20541;-63
2022/03/21 00:27:46;;;;;;;10.43;8.87;;;3.10;43.60;;;;;;6328182;28;20473;-63
2022/03/21 00:30:49;;;;;;;13.33;8.07;;;3.00;41.40;;;;;;6330096;28;20476;-63
2022/03/21 00:33:52;;;;;;;9.57;6.93;;;3.00;41.40;;;;;;6327919;28;20554;-63
2022/03/21 00:36:57;;;;;;;8.33;7.40;;;3.00;41.40;;;;;;6327781;28;20448;-63
2022/03/21 00:40:02;;;;;;;10.87;8.03;;;3.00;41.40;;;;;;6327632;28;20487;-63
2022/03/21 00:43:07;;;;;;;8.40;7.53;;;3.00;41.40;;;;;;6327722;28;20498;-63
2022/03/21 00:46:11;;;;;;;14.50;8.27;;;3.10;41.50;;;;;;6327743;28;20502;-63
2022/03/21 00:49:14;;;;;;;9.63;8.30;;;3.00;41.40;;;;;;6326994;28;20465;-64
2022/03/21 00:52:19;;;;;;;9.50;8.50;;;3.10;41.50;;;;;;6322099;28;20476;-63
2022/03/21 00:55:26;;;;;;;9.40;8.40;;;3.00;41.60;;;;;;6327080;28;20476;-63
2022/03/21 00:58:29;;;;;;;12.13;8.40;;;3.00;42.10;;;;;;6327113;28;20469;-63
2022/03/21 01:01:32;;;;;;;9.30;7.87;;;2.90;42.10;;;;;;6326804;28;20476;-63
2022/03/21 01:04:36;;;;;;;9.97;7.80;;;2.90;42.20;;;;;;6327052;28;20465;-63
2022/03/21 01:07:42;;;;;;;9.00;8.07;;;3.00;42.10;;;;;;6327064;28;20537;-63
2022/03/21 01:10:45;;;;;;;8.60;7.40;;;3.00;42.00;;;;;;6327165;28;20465;-63
2022/03/21 01:13:48;;;;;;;8.33;7.20;;;2.90;41.50;;;;;;6327128;28;20468;-63
2022/03/21 01:16:55;;;;;;;9.37;7.70;;;2.90;41.30;;;;;;6326928;28;20476;-63
2022/03/21 01:19:58;;;;;;;11.13;7.90;;;2.90;41.30;;;;;;6326319;28;20941;-64
2022/03/21 01:23:03;;;;;;;8.83;7.93;;;2.90;41.30;;;;;;6326385;28;20479;-64
2022/03/21 01:26:06;;;;;;;18.83;7.07;;;2.90;41.30;;;;;;6326433;28;20473;-64
2022/03/21 01:29:09;;;;;;;9.37;8.13;;;2.90;41.90;;;;;;6326073;28;20477;-64
2022/03/21 01:32:12;;;;;;;8.70;7.20;;;3.00;41.40;;;;;;6326245;28;20469;-64
2022/03/21 01:35:17;;;;;;;7.73;7.00;;;2.90;41.40;;;;;;6325478;28;20464;-63
2022/03/21 01:38:22;;;;;;;9.03;8.13;;;2.90;41.50;;;;;;6325849;28;20480;-63
2022/03/21 01:41:25;;;;;;;9.57;7.90;;;2.90;41.30;;;;;;6325974;28;20480;-63
2022/03/21 01:44:28;;;;;;;8.77;7.00;;;2.80;41.80;;;;;;6326056;28;20530;-63
2022/03/21 01:47:33;;;;;;;9.60;7.47;;;2.80;41.90;;;;;;6325760;28;20464;-63
2022/03/21 01:50:37;;;;;;;8.97;7.10;;;2.80;42.80;;;;;;6325586;28;20460;-64
2022/03/21 01:57:04;;;;;;;9.07;7.17;;;2.70;42.80;;;;;;6321824;28;20476;-64
2022/03/21 02:00:08;;;;;;;8.13;7.20;;;2.70;43.00;;;;;;6325652;28;20538;-63
2022/03/21 02:03:11;;;;;;;10.33;7.53;;;2.70;43.00;;;;;;6325383;28;20488;-63
2022/03/21 02:06:16;;;;;;;9.17;8.27;;;2.70;42.90;;;;;;6325337;28;20468;-64
2022/03/21 02:09:21;;;;;;;8.33;6.63;;;2.70;42.90;;;;;;6325138;28;20476;-63
2022/03/21 02:12:24;;;;;;;7.63;6.73;;;2.60;43.10;;;;;;6324924;28;20472;-64
2022/03/21 02:15:27;;;;;;;9.00;7.10;;;2.70;43.00;;;;;;6325157;28;20469;-63
2022/03/21 02:18:31;;;;;;;9.60;6.87;;;2.60;42.80;;;;;;6324851;28;20477;-64
2022/03/21 02:21:49;;;;;;;7.27;6.30;;;2.60;43.00;;;;;;6324797;28;20476;-63
2022/03/21 02:25:03;;;;;;;8.20;7.40;;;2.60;43.10;;;;;;6324691;28;20445;-63
2022/03/21 02:28:09;;;;;;;8.90;8.00;;;2.60;43.30;;;;;;6324587;28;20464;-63
2022/03/21 02:31:14;;;;;;;8.40;7.17;;;2.60;43.00;;;;;;6325340;28;20502;-63
2022/03/21 02:34:18;;;;;;;9.53;7.50;;;2.60;43.10;;;;;;6325101;28;20476;-64
2022/03/21 02:37:23;;;;;;;8.40;7.20;;;2.60;43.10;;;;;;6324878;28;20464;-64
2022/03/21 02:40:27;;;;;;;8.27;6.87;;;2.60;43.00;;;;;;6324506;28;20502;-63
2022/03/21 02:43:32;;;;;;;8.23;6.97;;;2.70;42.80;;;;;;6324795;28;20475;-64
2022/03/21 02:46:37;;;;;;;8.73;7.03;;;2.60;42.90;;;;;;6324832;28;20842;-63
2022/03/21 02:49:40;;;;;;;9.57;8.67;;;2.60;42.90;;;;;;6330342;28;20480;-63
2022/03/21 02:52:46;;;;;;;7.87;7.10;;;2.50;42.90;;;;;;6330090;28;20479;-63
2022/03/21 02:55:54;;;;;;;8.27;7.47;;;2.60;43.00;;;;;;6329955;28;20472;-64
2022/03/21 02:58:58;;;;;;;7.90;7.30;;;2.50;42.90;;;;;;6330274;28;20468;-64
2022/03/21 03:02:02;;;;;;;9.90;7.67;;;2.50;42.90;;;;;;6330513;28;20468;-63
2022/03/21 03:05:06;;;;;;;11.33;8.07;;;2.40;42.80;;;;;;6330464;28;20464;-63
2022/03/21 03:08:09;;;;;;;10.60;6.67;;;2.40;42.80;;;;;;6330166;28;20477;-63
2022/03/21 03:11:13;;;;;;;9.50;7.07;;;2.40;43.00;;;;;;6329545;28;20828;-63
2022/03/21 03:14:18;;;;;;;8.50;7.63;;;2.30;43.70;;;;;;6329337;28;20470;-63
2022/03/21 03:17:21;;;;;;;8.73;7.97;;;2.30;43.20;;;;;;6329286;28;20836;-63
2022/03/21 03:20:24;;;;;;;9.33;7.17;;;2.20;43.30;;;;;;6329612;28;20475;-64
2022/03/21 03:23:30;;;;;;;7.30;6.20;;;2.20;43.70;;;;;;6329755;28;20469;-64
2022/03/21 03:26:33;;;;;;;6.50;5.40;;;2.20;44.00;;;;;;6329627;28;20777;-64
2022/03/21 03:29:37;;;;;;;7.97;7.17;;;2.10;44.20;;;;;;6329499;28;20968;-64
2022/03/21 03:32:41;;;;;;;7.70;6.90;;;2.10;44.30;;;;;;6329651;28;20469;-64
2022/03/21 03:35:44;;;;;;;7.13;5.50;;;2.10;44.40;;;;;;6329077;28;20487;-64
2022/03/21 03:38:48;;;;;;;10.10;7.37;;;2.10;44.40;;;;;;6328793;28;20487;-63
2022/03/21 03:41:51;;;;;;;8.90;6.70;;;2.10;44.20;;;;;;6328483;28;20481;-64
2022/03/21 03:44:55;;;;;;;7.80;6.33;;;2.10;44.00;;;;;;6328536;28;20483;-64
2022/03/21 03:47:58;;;;;;;8.20;7.13;;;2.10;44.10;;;;;;6328348;28;20759;-65
2022/03/21 03:51:03;;;;;;;6.43;5.83;;;2.00;44.10;;;;;;6328487;28;20812;-65
2022/03/21 03:54:06;;;;;;;8.27;6.63;;;2.00;44.40;;;;;;6328756;28;20525;-65
2022/03/21 03:57:11;;;;;;;9.87;7.33;;;2.00;44.70;;;;;;6328414;28;20487;-65
2022/03/21 04:00:17;;;;;;;11.00;6.67;;;2.00;45.00;;;;;;6326985;28;20472;-65
2022/03/21 04:06:42;;;;;;;9.20;7.67;;;1.90;44.90;;;;;;6328312;28;20928;-64
2022/03/21 04:09:45;;;;;;;9.47;7.00;;;1.80;44.90;;;;;;6327931;28;20964;-64
2022/03/21 04:12:49;;;;;;;10.50;7.57;;;1.80;45.10;;;;;;6327987;28;20472;-64
2022/03/21 04:15:53;;;;;;;8.80;8.00;;;1.80;45.20;;;;;;6327939;28;20477;-65
2022/03/21 04:18:56;;;;;;;8.47;6.83;;;1.80;45.10;;;;;;6327856;28;20468;-65
2022/03/21 04:22:01;;;;;;;6.97;6.20;;;1.80;44.90;;;;;;6327607;28;20499;-65
2022/03/21 04:25:07;;;;;;;8.40;7.50;;;1.80;44.90;;;;;;6327478;28;20882;-65
2022/03/21 04:28:11;;;;;;;7.67;6.20;;;1.80;45.00;;;;;;6327796;28;20464;-63
2022/03/21 04:31:15;;;;;;;11.47;7.50;;;1.70;45.00;;;;;;6327998;28;20476;-64
2022/03/21 04:34:18;;;;;;;9.63;7.67;;;1.70;45.20;;;;;;6327198;28;20550;-63
2022/03/21 04:37:21;;;;;;;10.80;7.77;;;1.70;45.30;;;;;;6327200;28;20480;-64
2022/03/21 04:40:25;;;;;;;8.70;7.80;;;1.70;45.40;;;;;;6327459;28;20469;-63
2022/03/21 04:43:28;;;;;;;8.27;6.33;;;1.70;45.40;;;;;;6327562;28;20465;-63
2022/03/21 04:46:32;;;;;;;14.00;7.63;;;1.70;45.60;;;;;;6327451;28;20975;-64
2022/03/21 04:49:36;;;;;;;8.13;7.30;;;1.60;45.60;;;;;;6327408;28;20475;-64
2022/03/21 04:52:39;;;;;;;10.83;9.57;;;1.60;45.80;;;;;;6327255;28;20484;-64
2022/03/21 04:55:43;;;;;;;11.00;7.90;;;1.60;45.80;;;;;;6326959;28;20546;-64
2022/03/21 04:58:46;;;;;;;9.57;7.83;;;1.60;45.80;;;;;;6326812;28;20476;-64
2022/03/21 05:01:51;;;;;;;9.80;8.70;;;1.50;45.70;;;;;;6327005;28;20468;-64
2022/03/21 05:04:54;;;;;;;9.00;7.77;;;1.50;45.90;;;;;;6322462;28;20484;-64
2022/03/21 05:07:58;;;;;;;9.80;8.90;;;1.50;46.00;;;;;;6326737;28;20483;-64
2022/03/21 05:11:01;;;;;;;9.03;8.10;;;1.50;46.20;;;;;;6326729;28;20472;-64
2022/03/21 05:14:04;;;;;;;8.30;7.13;;;1.50;46.30;;;;;;6326611;28;20509;-64
2022/03/21 05:17:09;;;;;;;8.13;7.33;;;1.60;46.50;;;;;;6326652;28;20471;-66
2022/03/21 05:20:16;;;;;;;8.20;7.50;;;1.60;46.40;;;;;;6326577;28;20546;-65
2022/03/21 05:36:42;;;;;;;11.90;8.40;;;1.80;46.10;;;;;;6326576;28;20973;-63
2022/03/21 05:43:06;;;;;;;15.43;7.90;;;1.80;46.10;;;;;;6325772;28;20787;-63
2022/03/21 05:46:09;;;;;;;10.80;7.50;;;1.80;45.90;;;;;;6325875;28;20480;-64
2022/03/21 05:49:13;;;;;;;9.23;7.10;;;1.90;45.80;;;;;;6324475;28;20460;-64
2022/03/21 05:52:17;;;;;;;11.73;8.37;;;1.90;45.50;;;;;;6324247;28;20460;-64
2022/03/21 05:55:20;;;;;;;14.60;8.30;;;2.00;45.40;;;;;;6325595;28;20472;-65
2022/03/21 05:58:23;;;;;;;9.67;8.50;;;2.00;45.50;;;;;;6325539;28;20851;-65
2022/03/21 06:01:26;;;;;;;10.93;7.80;;;2.10;45.70;;;;;;6325413;28;20498;-66
2022/03/21 06:04:31;;;;;;;11.20;7.97;;;2.10;45.70;;;;;;6324617;28;20492;-65
2022/03/21 06:07:34;;;;;;;11.00;9.30;;;2.10;45.80;;;;;;6319240;28;20537;-63
2022/03/21 06:10:37;;;;;;;9.53;7.73;;;2.10;46.60;;;;;;6323623;28;20472;-64
2022/03/21 06:13:43;;;;;;;13.67;8.47;;;2.10;46.30;;;;;;6323489;28;21006;-63
2022/03/21 06:16:47;;;;;;;8.67;7.87;;;2.20;45.90;;;;;;6323794;28;20477;-63
2022/03/21 06:19:52;;;;;;;9.60;7.20;;;2.30;45.20;;;;;;6323915;28;20479;-64
2022/03/21 06:22:57;;;;;;;11.10;8.60;;;2.40;44.90;;;;;;6323829;28;20477;-65
2022/03/21 06:26:00;;;;;;;10.37;7.20;;;2.50;44.50;;;;;;6323801;28;20472;-64
2022/03/21 06:29:05;;;;;;;18.73;7.93;;;2.60;44.40;;;;;;6323590;28;20472;-63
2022/03/21 06:32:09;;;;;;;16.03;8.63;;;2.70;44.10;;;;;;6323661;28;20481;-64
2022/03/21 06:35:14;;;;;;;10.53;7.70;;;2.80;43.80;;;;;;6323110;28;20468;-63
2022/03/21 06:38:17;;;;;;;11.10;8.53;;;3.00;43.70;;;;;;6323728;28;20473;-63
2022/03/21 06:41:20;;;;;;;13.37;8.40;;;3.10;43.50;;;;;;6324106;28;20768;-63
2022/03/21 06:44:24;;;;;;;12.97;8.50;;;3.20;43.30;;;;;;6324949;28;20472;-64
2022/03/21 06:47:27;;;;;;;12.00;8.60;;;3.40;43.00;;;;;;6325885;28;21023;-63
2022/03/21 06:50:31;;;;;;;11.93;8.63;;;3.50;42.50;;;;;;6323473;28;20754;-63
2022/03/21 06:53:34;;;;;;;8.10;7.30;;;3.80;42.10;;;;;;6325598;28;20479;-65
2022/03/21 06:56:38;;;;;;;10.43;7.60;;;4.00;41.80;;;;;;6336713;28;20469;-63
2022/03/21 06:59:41;;;;;;;10.23;8.37;;;4.40;41.30;;;;;;6329919;28;20465;-63
2022/03/21 07:02:44;;;;;;;12.70;9.40;;;4.90;40.30;;;;;;6326527;28;20522;-63
2022/03/21 07:05:49;;;;;;;10.40;8.13;;;5.20;39.80;;;;;;6324380;28;20468;-64
2022/03/21 07:08:52;;;;;;;12.50;8.33;;;5.60;39.70;;;;;;6325323;28;20966;-63
2022/03/21 07:11:55;;;;;;;13.83;9.30;;;6.30;39.30;;;;;;6315136;28;20474;-63
2022/03/21 07:14:59;;;;;;;12.57;8.93;;;8.60;36.70;;;;;;6325283;28;20475;-65
2022/03/21 07:18:02;;;;;;;9.77;8.10;;;11.80;32.40;;;;;;6325250;28;20479;-64
2022/03/21 07:21:06;;;;;;;11.10;9.23;;;14.70;28.20;;;;;;6324764;28;20461;-65
2022/03/21 07:24:09;;;;;;;15.50;9.80;;;17.10;25.80;;;;;;6325051;28;20496;-64
2022/03/21 07:27:13;;;;;;;9.50;8.50;;;18.70;24.10;;;;;;6324430;28;20465;-64
2022/03/21 07:30:17;;;;;;;14.33;11.27;;;20.20;22.30;;;;;;6324645;28;20473;-65
2022/03/21 07:33:20;;;;;;;10.70;9.10;;;21.20;21.00;;;;;;6325197;28;20476;-66
2022/03/21 07:36:24;;;;;;;12.83;10.60;;;22.00;19.90;;;;;;6329068;28;20551;-65
2022/03/21 07:39:33;;;;;;;13.40;9.77;;;23.00;19.60;;;;;;6348018;22;20317;-64
2022/03/21 07:42:37;;;;;;;11.83;10.73;;;24.00;18.40;;;;;;6354246;28;20234;-65
2022/03/21 07:49:02;;;;;;;11.00;9.97;;;25.60;17.00;;;;;;6354111;28;20230;-64
2022/03/21 07:52:07;;;;;;;10.90;10.00;;;26.60;15.90;;;;;;6354054;28;20581;-64
2022/03/21 07:55:10;;;;;;;11.83;10.80;;;27.30;15.40;;;;;;6365697;28;20217;-64
2022/03/21 07:58:14;;;;;;;11.53;10.33;;;27.30;14.50;;;;;;6365921;28;20658;-65
2022/03/21 08:01:18;;;;;;;11.67;10.50;;;28.20;14.60;;;;;;6361250;28;20311;-65
2022/03/21 08:04:22;;;;;;;12.47;11.17;;;29.40;14.00;;;;;;6360261;28;20231;-65
2022/03/21 08:07:27;;;;;;;12.30;11.20;;;30.40;13.20;;;;;;6359806;28;20233;-65
2022/03/21 08:10:30;;;;;;;11.90;10.80;;;31.10;12.70;;;;;;6354721;28;20225;-65
2022/03/21 08:13:33;;;;;;;11.43;10.43;;;31.60;12.00;;;;;;6344152;28;20232;-65
2022/03/21 08:16:36;;;;;;;12.27;10.90;;;32.00;12.10;;;;;;6343598;28;20707;-65
2022/03/21 08:19:40;;;;;;;12.85;11.80;;;32.70;11.60;;;;;;6328926;28;20659;-64
2022/03/21 08:22:44;;;;;;;12.73;11.73;;;33.40;11.20;;;;;;6337293;28;21979;-65
2022/03/21 08:25:48;;;;;;;11.82;10.98;;;33.80;10.50;;;;;;6333041;28;20241;-66
2022/03/21 08:28:51;;;;;;;12.43;10.95;;;34.00;10.10;;;;;;6334208;28;20226;-66
2022/03/21 08:31:55;;;;;;;12.40;11.40;;;33.50;10.10;;;;;;6331282;28;20692;-67
2022/03/21 08:34:58;;;;;;;13.27;11.73;;;33.90;10.10;;;;;;6331858;28;20283;-67
2022/03/21 08:38:03;;;;;;;11.65;10.68;;;34.50;10.00;;;;;;6327223;28;20229;-65
2022/03/21 08:41:06;;;;;;;11.68;10.68;;;35.10;9.70;;;;;;6327223;28;20230;-65
2022/03/21 08:44:09;;;;;;;12.13;11.13;;;34.80;9.60;;;;;;6330063;28;20246;-68
2022/03/21 08:47:12;;;;;;;11.98;10.82;;;35.30;10.10;;;;;;6338556;28;20243;-68
2022/03/21 08:50:15;;;;;;;11.10;9.98;;;35.90;9.40;;;;;;6358468;28;20229;-66
2022/03/21 08:53:19;;;;;;;11.10;10.20;;;34.70;9.30;;;;;;6358505;28;20229;-67
2022/03/21 08:56:25;;;;;;;10.27;9.43;;;34.30;9.30;;;;;;6352953;28;20236;-67
2022/03/21 08:59:28;;;;;;;11.85;10.95;;;33.90;9.20;;;;;;6351683;28;20241;-66
2022/03/21 09:02:31;;;;;;;12.50;11.50;;;33.80;9.60;;;;;;6351896;27;20236;-64
2022/03/21 09:05:35;;;;;;;11.23;10.30;;;34.50;9.50;;;;;;6351423;28;20240;-65
2022/03/21 09:08:42;;;;;;;11.27;10.27;;;35.80;9.40;;;;;;6351556;28;20244;-66
2022/03/21 09:11:46;;;;;;;9.88;9.18;;;36.90;8.90;;;;;;6353173;28;20225;-67
2022/03/21 09:14:49;;;;;;;12.00;10.82;;;37.30;8.40;;;;;;6352863;28;20217;-64
2022/03/21 09:17:52;;;;;;;11.57;10.45;;;37.60;8.60;;;;;;6347133;28;20244;-64
2022/03/21 09:20:56;;;;;;;11.48;10.50;;;38.40;8.20;;;;;;6350358;28;20576;-65
2022/03/21 09:24:01;;;;;;;12.02;11.13;;;39.30;8.00;;;;;;6348594;28;20577;-64
2022/03/21 09:27:04;;;;;;;11.07;10.23;;;39.60;8.40;;;;;;6350779;28;20221;-63
2022/03/21 09:30:09;;;;;;;10.38;9.57;;;39.40;7.60;;;;;;6350828;28;20281;-65
2022/03/21 09:33:12;;;;;;;11.43;10.32;;;37.00;8.10;;;;;;6351726;28;20237;-65
2022/03/21 09:36:15;;;;;;;10.68;9.98;;;37.60;7.90;;;;;;6351503;27;20221;-64
2022/03/21 09:39:21;;;;;;;11.50;10.40;;;37.60;7.90;;;;;;6351210;28;20248;-65
2022/03/21 09:42:25;;;;;;;10.02;9.30;;;38.80;7.80;;;;;;6349838;28;20235;-62
2022/03/21 09:45:29;;;;;;;11.38;10.38;;;39.20;7.30;;;;;;6350587;28;20650;-62
2022/03/21 09:48:34;;;;;;;10.20;9.50;;;40.30;7.30;;;;;;6350440;28;20572;-63
2022/03/21 09:51:39;;;;;;;11.32;10.32;;;40.80;7.00;;;;;;6350462;28;20225;-64
2022/03/21 09:54:43;;;;;;;10.32;9.52;;;41.30;6.70;;;;;;6350539;28;20232;-63
2022/03/21 09:57:46;;;;;;;10.30;9.57;;;41.80;6.50;;;;;;6349832;28;20225;-63
2022/03/21 10:00:50;;;;;;;11.18;10.30;;;41.20;6.40;;;;;;6350297;28;20226;-63
2022/03/21 10:03:53;;;;;;;11.35;10.45;;;41.70;7.10;;;;;;6350030;28;20233;-63
2022/03/21 10:07:00;;;;;;;10.20;9.50;;;41.20;6.50;;;;;;6350173;28;20596;-63
2022/03/21 10:10:09;;;;;;;10.90;10.00;;;42.20;6.50;;;;;;6350660;28;20224;-63
2022/03/21 10:13:13;;;;;;;11.02;10.23;;;41.50;6.30;;;;;;6350875;28;20190;-65
2022/03/21 10:16:18;;;;;;;10.98;10.07;;;40.40;6.70;;;;;;6350398;28;20241;-63
2022/03/21 10:19:21;;;;;;;11.00;10.30;;;41.50;6.60;;;;;;6340305;28;20570;-64
2022/03/21 10:22:43;;;;;;;10.65;9.85;;;41.50;6.20;;;;;;6340408;28;20220;-64
2022/03/21 10:25:48;;;;;;;11.13;10.32;;;42.30;6.50;;;;;;6324815;28;20241;-64
2022/03/21 10:28:53;;;;;;;11.68;10.70;;;40.50;6.40;;;;;;6325075;28;20234;-64
2022/03/21 10:31:56;;;;;;;12.07;11.00;;;39.40;7.10;;;;;;6333603;28;20221;-65
2022/03/21 10:35:06;;;;;;;11.15;10.05;;;39.50;7.10;;;;;;6349565;28;20659;-63
2022/03/21 10:38:09;;;;;;;11.35;10.45;;;39.90;7.00;;;;;;6324410;28;20233;-63
2022/03/21 10:41:14;;;;;;;11.00;10.20;;;39.40;6.90;;;;;;6341791;28;20247;-63
2022/03/21 10:44:17;;;;;;;10.15;9.35;;;37.70;7.40;;;;;;6355143;28;20225;-65
2022/03/21 10:47:20;;;;;;;10.95;10.15;;;36.70;7.30;;;;;;6352868;28;20225;-64
2022/03/21 10:50:31;;;;;;;11.05;10.15;;;36.10;7.40;;;;;;6353479;28;20240;-67
2022/03/21 10:53:39;;;;;;;10.77;9.95;;;35.00;7.50;;;;;;6357921;28;20294;-65
2022/03/21 10:56:44;;;;;;;10.63;9.77;;;33.70;7.90;;;;;;6355457;28;20241;-66
2022/03/21 10:59:47;;;;;;;12.32;11.32;;;32.20;8.80;;;;;;6350291;28;20244;-63
2022/03/21 11:02:56;;;;;;;11.88;10.88;;;31.70;8.80;;;;;;6350180;28;20251;-66
2022/03/21 11:06:00;;;;;;;12.90;11.63;;;31.40;8.90;;;;;;6349390;28;20307;-66
2022/03/21 11:09:03;;;;;;;11.68;10.77;;;31.40;9.20;;;;;;6351841;28;20236;-66
2022/03/21 11:12:10;;;;;;;12.18;11.18;;;31.60;9.10;;;;;;6354568;28;20232;-66
2022/03/21 11:15:14;;;;;;;11.75;10.85;;;31.00;9.40;;;;;;6355211;28;20236;-66
2022/03/21 11:18:20;;;;;;;13.32;11.95;;;30.40;9.30;;;;;;6356257;28;20229;-66
2022/03/21 11:21:24;;;;;;;13.20;12.10;;;30.70;9.50;;;;;;6353463;28;20224;-65
2022/03/21 11:24:28;;;;;;;11.70;10.73;;;30.70;9.50;;;;;;6320031;28;20234;-63
2022/03/21 11:27:51;;;;;;;11.00;10.30;;;31.10;9.70;;;;;;6329723;28;20234;-63
2022/03/21 11:31:16;;;;;;;12.50;11.45;;;31.40;9.30;;;;;;6328928;28;20594;-64
2022/03/21 11:34:37;;;;;;;11.88;10.88;;;31.50;9.40;;;;;;6328958;28;20304;-64
2022/03/21 11:37:40;;;;;;;11.45;10.65;;;31.90;9.20;;;;;;6328690;28;20672;-64
2022/03/21 11:40:43;;;;;;;10.82;10.07;;;32.00;8.70;;;;;;6328386;28;20233;-64
2022/03/21 11:44:08;;;;;;;10.88;9.98;;;31.00;9.00;;;;;;6328679;28;20237;-64
2022/03/21 11:47:27;;;;;;;11.23;10.32;;;30.00;9.10;;;;;;6334351;27;20274;-64
2022/03/21 11:50:30;;;;;;;11.75;10.75;;;28.80;9.30;;;;;;6343074;28;20283;-64
2022/03/21 11:53:33;;;;;;;11.65;9.90;;;29.40;9.50;;;;;;6341143;28;20264;-64
2022/03/21 11:56:54;;;;;;;10.98;10.10;;;30.70;9.20;;;;;;6346075;28;20221;-63
2022/03/21 12:00:01;;;;;;;10.45;9.65;;;31.20;8.60;;;;;;6328126;28;20756;-64
2022/03/21 12:03:04;;;;;;;10.07;9.38;;;30.60;8.70;;;;;;6329825;28;20248;-64
2022/03/21 12:06:23;;;;;;;10.48;9.48;;;30.50;9.40;;;;;;6351991;28;20225;-64
2022/03/21 12:09:41;;;;;;;10.25;9.32;;;30.90;9.00;;;;;;6346694;28;20571;-62
2022/03/21 12:12:54;;;;;;;10.77;9.88;;;30.80;9.00;;;;;;6332224;28;20241;-62
2022/03/21 12:16:03;;;;;;;10.57;9.77;;;30.30;8.80;;;;;;6330610;28;20221;-64
2022/03/21 12:19:06;;;;;;;10.25;9.30;;;30.00;9.10;;;;;;6328020;28;20266;-67
2022/03/21 12:22:43;;;;;;;11.35;10.35;;;29.70;9.00;;;;;;6329451;28;20221;-66
2022/03/21 12:25:48;;;;;;;9.73;8.93;;;29.60;9.10;;;;;;6353265;28;20233;-66
2022/03/21 12:32:28;;;;;;;9.83;8.93;;;28.70;9.40;;;;;;6347451;28;20237;-63
2022/03/21 12:35:53;;;;;;;9.90;9.20;;;28.40;9.60;;;;;;6329633;28;20230;-66
2022/03/21 12:38:56;;;;;;;9.57;8.77;;;28.40;9.50;;;;;;6336413;28;20659;-64
2022/03/21 12:42:02;;;;;;;9.07;8.30;;;27.60;9.60;;;;;;6340827;28;20235;-65
2022/03/21 12:45:05;;;;;;;9.40;8.60;;;27.70;10.10;;;;;;6332632;28;20265;-65
2022/03/21 12:48:11;;;;;;;9.07;8.37;;;27.90;10.10;;;;;;6333584;28;20233;-65
2022/03/21 12:51:15;;;;;;;9.97;9.03;;;28.10;9.90;;;;;;6352341;28;20233;-65
2022/03/21 12:54:18;;;;;;;10.33;9.43;;;28.60;9.70;;;;;;6352165;27;20229;-65
2022/03/21 12:57:21;;;;;;;10.00;9.10;;;28.90;9.60;;;;;;6338869;28;20577;-65
2022/03/21 13:00:27;;;;;;;10.80;9.27;;;28.70;10.10;;;;;;6326123;28;20248;-65
2022/03/21 13:03:32;;;;;;;9.53;8.73;;;28.40;9.60;;;;;;6326569;28;20236;-66
2022/03/21 13:13:16;;;;;;;9.00;8.27;;;28.30;9.90;;;;;;6329701;27;20228;-65
2022/03/21 13:16:19;;;;;;;10.00;9.20;;;28.40;9.90;;;;;;6351645;28;20229;-64
2022/03/21 13:19:26;;;;;;;10.67;8.67;;;28.20;10.00;;;;;;6351735;28;20229;-65
2022/03/21 13:22:29;;;;;;;10.37;9.50;;;27.50;10.00;;;;;;6351115;28;20232;-66
2022/03/21 13:25:34;;;;;;;9.37;8.53;;;26.90;10.30;;;;;;6351554;28;20229;-64
2022/03/21 13:28:39;;;;;;;9.30;8.43;;;26.40;10.70;;;;;;6346529;28;20229;-65
2022/03/21 13:31:43;;;;;;;10.70;8.77;;;25.00;11.00;;;;;;6351317;27;20233;-65
2022/03/21 13:34:51;;;;;;;9.80;8.70;;;24.50;11.40;;;;;;6351622;28;20225;-65
2022/03/21 13:38:02;;;;;;;9.97;9.13;;;24.10;11.70;;;;;;6351441;28;20230;-65
2022/03/21 13:41:14;;;;;;;9.77;8.87;;;22.80;12.30;;;;;;6351621;28;20241;-64
2022/03/21 13:44:17;;;;;;;9.87;8.97;;;21.80;12.90;;;;;;6351529;28;20226;-64
2022/03/21 13:47:20;;;;;;;9.23;8.53;;;20.30;13.50;;;;;;6351200;28;20226;-64
2022/03/21 13:50:33;;;;;;;9.60;7.90;;;19.10;14.30;;;;;;6351061;28;20291;-63
2022/03/21 13:53:39;;;;;;;8.77;7.97;;;18.40;14.60;;;;;;6350805;28;20242;-63
2022/03/21 13:56:46;;;;;;;7.97;7.27;;;17.70;15.10;;;;;;6350827;28;20237;-64
2022/03/21 14:00:07;;;;;;;8.10;7.30;;;17.30;15.30;;;;;;6350295;27;20687;-64
2022/03/21 14:03:10;;;;;;;8.37;7.60;;;16.40;15.70;;;;;;6350629;28;20964;-64
2022/03/21 14:06:15;;;;;;;7.33;6.50;;;16.30;16.30;;;;;;6349848;28;20476;-64
2022/03/21 14:09:18;;;;;;;7.53;6.83;;;16.30;16.90;;;;;;6349915;28;20482;-64
2022/03/21 14:12:29;;;;;;;8.73;7.43;;;16.10;16.30;;;;;;6350124;28;20487;-64
2022/03/21 14:15:32;;;;;;;8.07;6.70;;;15.90;16.60;;;;;;6350455;28;20482;-64
2022/03/21 14:18:37;;;;;;;8.30;7.60;;;15.90;16.70;;;;;;6355581;22;20887;-64
2022/03/21 14:21:43;;;;;;;7.63;6.83;;;15.70;16.60;;;;;;6354672;27;20468;-64
2022/03/21 14:24:46;;;;;;;8.27;7.47;;;15.50;16.80;;;;;;6351815;28;20951;-64
2022/03/21 14:27:49;;;;;;;7.57;6.80;;;15.50;16.80;;;;;;6350456;28;20479;-64
2022/03/21 14:30:52;;;;;;;7.87;7.07;;;15.40;16.80;;;;;;6349946;28;20533;-64
2022/03/21 14:33:56;;;;;;;7.73;7.03;;;15.30;17.10;;;;;;6350085;28;20479;-64
2022/03/21 14:37:01;;;;;;;6.60;6.00;;;15.10;17.10;;;;;;6344189;28;20539;-64
2022/03/21 14:40:04;;;;;;;7.97;7.30;;;15.00;17.30;;;;;;6349830;27;20471;-64
2022/03/21 14:43:08;;;;;;;7.63;6.83;;;14.90;17.40;;;;;;6349998;27;20439;-64
2022/03/21 14:46:12;;;;;;;10.60;7.60;;;15.00;17.50;;;;;;6349714;27;20443;-64
2022/03/21 14:49:16;;;;;;;9.00;6.70;;;14.50;17.50;;;;;;6350086;28;20475;-63
2022/03/21 14:52:20;;;;;;;9.20;8.07;;;14.40;17.80;;;;;;6348013;27;20827;-64
2022/03/21 14:55:23;;;;;;;9.47;6.33;;;14.20;17.90;;;;;;6349599;27;20459;-64
2022/03/21 14:58:26;;;;;;;10.03;6.50;;;14.00;18.40;;;;;;6349567;27;20478;-63
2022/03/21 15:01:30;;;;;;;7.13;6.40;;;14.00;18.20;;;;;;6349642;27;20463;-63
2022/03/21 15:04:34;;;;;;;8.40;7.60;;;13.80;18.20;;;;;;6349054;27;20456;-63
2022/03/21 15:07:38;;;;;;;7.50;6.87;;;13.90;18.20;;;;;;6349770;27;20475;-63
2022/03/21 15:10:42;;;;;;;7.40;6.70;;;13.90;18.20;;;;;;6349322;27;20475;-63
2022/03/21 15:13:46;;;;;;;8.90;6.60;;;13.70;18.30;;;;;;6348394;28;20854;-63
2022/03/21 15:16:50;;;;;;;8.43;7.60;;;13.70;18.30;;;;;;6349007;28;20576;-63
2022/03/21 15:20:08;;;;;;;7.57;6.77;;;13.70;18.50;;;;;;6348692;28;20921;-63
2022/03/21 15:23:12;;;;;;;7.53;6.83;;;13.70;18.50;;;;;;6349253;27;20464;-65
2022/03/21 15:26:18;;;;;;;9.80;6.80;;;13.60;18.60;;;;;;6349325;27;20528;-64
2022/03/21 15:29:21;;;;;;;11.67;7.20;;;13.40;18.80;;;;;;6349085;27;20960;-64
2022/03/21 15:32:27;;;;;;;6.50;5.87;;;13.40;19.00;;;;;;6349080;27;20468;-64
2022/03/21 15:35:30;;;;;;;8.10;7.30;;;13.30;19.10;;;;;;6349206;27;20486;-64
2022/03/21 15:41:55;;;;;;;7.53;6.83;;;13.50;19.20;;;;;;6349385;27;20480;-62
2022/03/21 15:44:59;;;;;;;7.83;7.10;;;13.50;19.20;;;;;;6349215;27;20464;-63
2022/03/21 15:48:02;;;;;;;8.60;6.43;;;13.40;19.40;;;;;;6348942;27;20482;-63
2022/03/21 15:51:05;;;;;;;7.80;7.10;;;13.40;19.50;;;;;;6348708;28;20940;-63
2022/03/21 15:54:09;;;;;;;9.23;6.50;;;13.40;19.50;;;;;;6353702;28;20479;-65
2022/03/21 15:57:15;;;;;;;8.47;7.30;;;13.50;19.70;;;;;;6358633;27;20786;-66
2022/03/21 16:00:19;;;;;;;7.70;7.00;;;13.60;19.60;;;;;;6357791;28;20510;-64
2022/03/21 16:03:43;;;;;;;9.17;7.10;;;13.50;19.70;;;;;;6338952;28;20869;-64
2022/03/21 16:06:46;;;;;;;8.00;7.30;;;13.50;19.70;;;;;;6343269;28;20970;-64
2022/03/21 16:09:51;;;;;;;7.53;6.57;;;13.50;19.70;;;;;;6358203;27;20808;-64
2022/03/21 16:12:54;;;;;;;7.73;7.03;;;13.50;19.60;;;;;;6355901;28;20499;-64
2022/03/21 16:15:57;;;;;;;7.70;7.00;;;13.50;19.60;;;;;;6355370;28;20463;-66
2022/03/21 16:19:02;;;;;;;7.13;6.50;;;13.40;19.70;;;;;;6354821;28;20524;-64
2022/03/21 16:22:05;;;;;;;8.00;7.30;;;13.30;19.70;;;;;;6355679;28;20439;-64
2022/03/21 16:25:11;;;;;;;10.07;8.10;;;13.10;19.70;;;;;;6355104;28;20447;-64
2022/03/21 16:28:14;;;;;;;8.67;7.80;;;13.10;19.80;;;;;;6354430;27;20504;-65
2022/03/21 16:31:17;;;;;;;7.50;6.80;;;13.20;19.90;;;;;;6353370;27;20443;-65
2022/03/21 16:34:20;;;;;;;9.23;6.97;;;13.10;19.90;;;;;;6358693;27;20482;-65
2022/03/21 16:37:24;;;;;;;8.03;6.70;;;13.00;20.00;;;;;;6357819;27;20949;-65
2022/03/21 16:40:30;;;;;;;7.30;6.60;;;12.90;20.00;;;;;;6341303;27;20475;-65